LFBOLFKF

Guest
Details From LFBO - Toulouse Blagnac
To LFKF - Figari Sud Corse
Flight Number -
Tags generated
Created
Modified
Stats Distance 370 nm / 686 km
Max Altitude 35,000 ft / 10,668 m
Waypoints 8
Social Downloads 0
Likes 0
Share VATSIM

Download

Looking for another format? Having issues loading an existing format? Contact us
Advertisement - Login to hide

Notes

Basic altitude profile: - Ascent Rate: 2500ft/min - Ascent Speed: 250kts - Cruise Altitude: 35000ft - Cruise Speed: 420kts - Descent Rate: 1500ft/min - Descent Speed: 250kts Options: - Use NATs: yes - Use PACOTS: yes - Use low airways: yes - Use high airways: yes

Route

LFBO BOLSA UT21 DIVKO UM731 TINOT UY268 RUBAS Z154 AJO LFKF

ID Type Via Altitude Latitude Longitude Leg Dist Tot Dist Heading (true) Name
O LFBO APT - 0 ft / 0 m 43.62903˚ 1.36397˚ - 0 nm - Toulouse Blagnac
BOLSA FIX - 31,000 ft / 9,449 m 43.33408˚ 3.31508˚ 86 nm 86 nm 101° / 102° -
NIVET FIX UT21 (AWY-HI) 35,000 ft / 10,668 m 43.19833˚ 4.04278˚ 32 nm 119 nm 104° / 105° -
DIVKO FIX UT21 (AWY-HI) 35,000 ft / 10,668 m 43.05611˚ 4.77694˚ 33 nm 152 nm 105° / 105° -
TINOT FIX UM731 (AWY-HI) 35,000 ft / 10,668 m 42.69778˚ 5.31500˚ 31 nm 184 nm 132° / 132° -
RUBAS FIX UY268 (AWY-HI) 27,100 ft / 8,260 m 42.37694˚ 6.56889˚ 58 nm 243 nm 109° / 110° -
AJO VOR Z154 (AWY-LO) 5,500 ft / 1,676 m 41.77053˚ 8.77467˚ 104 nm 348 nm 110° / 111° AJACCIO VOR-DME
O LFKF APT - 0 ft / 0 m 41.50206˚ 9.09696˚ 21 nm 370 nm 138° / 138° Figari Sud Corse

Altitude Profile

Advertisement - Login to hide

Weather


0- 5 10 15 20 25 30 35+ Temperature / ° C

Clouds and Precipitation
Forecast for 2018-05-25 00:00 UTC. Updated 5 hours ago

Ground ~20,000 ft ~40,000 ft Winds

LFBO

Details ICAO LFBO (TLS)
Name Toulouse Blagnac
Region France
Timezone Europe/Paris (UTC+2.0)
Stats Elevation 499 ft / 152 m (AMSL)
Location 43.629026° 1.363969°
Runways 2
Magnetic Variation 0.628° E

METAR

LFBO 250400Z AUTO 14008KT 9999 SCT011 16/14 Q1014 TEMPO BKN007

Decode

TAF

TAF AMD LFBO 250242Z 2502/2606 14005KT CAVOK TEMPO 2502/2506 BKN007 BECMG 2510/2512 14010KT PROB30 TEMPO 2514/2521 14015G25KT

Decode

Departure Runways

ID Width Length Bearing (true) Bearing (mag) Surface Threshold Offset Overrun Length
14L 148 ft / 45 m 9,923 ft / 3,025 m 143.00° 142.37° Asphalt 0 ft / 0 m 0 ft / 0 m
14R 148 ft / 45 m 11,484 ft / 3,500 m 142.99° 142.36° Asphalt 0 ft / 0 m 295 ft / 90 m
32L 148 ft / 45 m 11,484 ft / 3,500 m 323.01° 322.38° Asphalt 0 ft / 0 m 197 ft / 60 m
32R 148 ft / 45 m 9,923 ft / 3,025 m 323.02° 322.39° Asphalt 0 ft / 0 m 0 ft / 0 m

LFKF

Details ICAO LFKF (FSC)
Name Figari Sud Corse
Region France
Timezone Europe/Paris (UTC+2.0)
Stats Elevation 87 ft / 27 m (AMSL)
Location 41.502064° 9.096960°
Runways 1
Magnetic Variation 2.425° E

METAR

LFKF 250400Z AUTO VRB01KT CAVOK 09/09 Q1016 NOSIG

Decode

TAF

TAF LFKF 250200Z 2503/2603 VRB02KT 9999 FEW035= TAF LFKJ 250200Z 2503/2603 05004KT 9999 FEW035 BECMG 2510/2512 20008KT

Decode

Destination Runways

ID Width Length Bearing (true) Bearing (mag) Surface Threshold Offset Overrun Length
05 148 ft / 45 m 8,131 ft / 2,478 m 47.42° 44.99° Asphalt 0 ft / 0 m 0 ft / 0 m
23 148 ft / 45 m 8,131 ft / 2,478 m 227.44° 225.01° Asphalt 0 ft / 0 m 0 ft / 0 m

Approach Navaids

Runway Type Ident Frequency Range Bearing (true) Bearing (mag) Slope Elevation
23 Localiser GR 110.50 MHz 27 nm / 50 km 229.00° 226.57° - 87 ft / 27 m (AMSL)
23 Glidescope GR 110.50 MHz 27 nm / 50 km 229.00° 226.57° 3.50° 87 ft / 27 m (AMSL)
23 DME GR 110.50 MHz 18 nm / 33 km - - - 131 ft / 40 m (AMSL)

Popular Alternatives